Time;durP1;ratioP1;P1;durP2;ratioP2;P2;SDS_P1;SDS_P2;PMS_P1;PMS_P2;Temp;Humidity;BMP_temperature;BMP_pressure;BME280_temperature;BME280_humidity;BME280_pressure;Samples;Min_cycle;Max_cycle;Signal;HPM_P1;HPM_P2
2024/04/09 00:01:46;;;;;;;;;;;;;;;;;;;;;
2024/04/09 00:04:49;;;;;;;15.50;4.13;;;;;;;;;;6007138;23;20411;-86
2024/04/09 00:07:52;;;;;;;;;;;;;;;;;;;;;
2024/04/09 00:10:38;;;;;;;;;;;;;;;;;;;;;
2024/04/09 00:20:23;;;;;;;15.43;4.70;;;;;;;;;;6044702;23;20808;-87
2024/04/09 00:37:41;;;;;;;11.70;4.27;;;;;;;;;;5886216;24;20814;-87
2024/04/09 00:40:42;;;;;;;7.93;2.93;;;;;;;;;;5742256;24;20442;-87
2024/04/09 02:24:16;;;;;;;3.03;1.40;;;;;;;;;;6153757;23;20755;-88
2024/04/09 02:34:48;;;;;;;5.17;1.73;;;;;;;;;;6095780;23;20419;-87
2024/04/09 02:41:04;;;;;;;5.73;2.13;;;;;;;;;;6092000;23;20403;-87
2024/04/09 02:56:47;;;;;;;4.00;1.53;;;;;;;;;;6167888;23;20458;-89
2024/04/09 03:00:36;;;;;;;;;;;;;;;;;;;;;
2024/04/09 03:04:11;;;;;;;6.03;2.33;;;;;;;;;;6032559;23;20451;-89
2024/04/09 03:10:54;;;;;;;;;;;;;;;;;;;;;
2024/04/09 03:32:55;;;;;;;;;;;;;;;;;;;;;
2024/04/09 03:47:18;;;;;;;7.07;1.87;;;;;;;;;;6035449;23;20446;-89
2024/04/09 03:53:57;;;;;;;;;;;;;;;;;;;;;
2024/04/09 04:13:37;;;;;;;7.43;2.50;;;;;;;;;;6185469;23;20517;-90
2024/04/09 04:30:27;;;;;;;3.53;1.83;;;;;;;;;;5971663;24;20414;-86
2024/04/09 04:46:04;;;;;;;6.10;1.80;;;;;;;;;;6154133;23;20425;-87
2024/04/09 04:52:51;;;;;;;6.50;2.80;;;;;;;;;;6023948;23;20426;-90
2024/04/09 04:55:42;;;;;;;5.50;1.80;;;;;;;;;;5984538;23;20407;-89
2024/04/09 06:36:29;;;;;;;0.60;0.60;;;;;;;;;;6146062;23;20471;-89
2024/04/09 06:39:46;;;;;;;0.70;0.70;;;;;;;;;;6008930;23;20439;-90
2024/04/09 06:42:55;;;;;;;;;;;;;;;;;;;;;
2024/04/09 06:49:02;;;;;;;0.80;0.60;;;;;;;;;;6009359;23;20804;-88
2024/04/09 07:13:03;;;;;;;1.17;0.57;;;;;;;;;;6112624;23;20492;-89
2024/04/09 07:20:05;;;;;;;;;;;;;;;;;;;;;
2024/04/09 09:33:41;;;;;;;2.67;1.20;;;;;;;;;;6190242;23;20478;-89
2024/04/09 09:50:08;;;;;;;;;;;;;;;;;;;;;
2024/04/09 09:57:28;;;;;;;0.93;0.70;;;;;;;;;;6014997;23;20415;-88
2024/04/09 10:03:41;;;;;;;2.30;2.10;;;;;;;;;;5907740;24;20409;-88
2024/04/09 11:23:31;;;;;;;;;;;;;;;;;;;;;
2024/04/09 11:26:01;;;;;;;1.57;0.73;;;;;;;;;;6106088;23;20404;-87
2024/04/09 11:55:16;;;;;;;2.07;0.87;;;;;;;;;;6155914;23;20437;-87
2024/04/09 11:58:00;;;;;;;2.00;1.20;;;;;;;;;;6137272;23;20403;-88
2024/04/09 12:00:35;;;;;;;2.77;0.70;;;;;;;;;;6138677;23;20409;-89
2024/04/09 12:10:44;;;;;;;1.43;0.80;;;;;;;;;;6134700;23;20415;-87
2024/04/09 12:13:41;;;;;;;0.97;0.73;;;;;;;;;;6112644;23;20375;-89
2024/04/09 12:16:43;;;;;;;3.20;0.80;;;;;;;;;;6021135;23;21064;-87
2024/04/09 12:19:39;;;;;;;1.07;0.70;;;;;;;;;;5996833;23;20407;-85
2024/04/09 12:22:33;;;;;;;3.30;0.77;;;;;;;;;;5998194;23;20968;-87
2024/04/09 12:25:59;;;;;;;1.73;0.90;;;;;;;;;;5989035;23;20457;-87
2024/04/09 12:28:59;;;;;;;3.37;1.13;;;;;;;;;;5966668;24;20529;-89
2024/04/09 12:47:24;;;;;;;0.63;0.53;;;;;;;;;;6152002;23;20451;-88
2024/04/09 12:50:52;;;;;;;2.83;1.07;;;;;;;;;;6147410;23;20430;-87
2024/04/09 12:54:07;;;;;;;2.30;0.77;;;;;;;;;;5986258;23;20418;-84
2024/04/09 13:14:12;;;;;;;2.50;2.13;;;;;;;;;;6146459;23;20877;-87
2024/04/09 13:16:51;;;;;;;1.47;0.70;;;;;;;;;;6085168;23;20414;-83
2024/04/09 13:19:53;;;;;;;0.70;0.60;;;;;;;;;;6117009;23;20409;-88
2024/04/09 13:25:28;;;;;;;1.43;0.67;;;;;;;;;;6077261;23;20431;-84
2024/04/09 13:27:55;;;;;;;2.10;1.00;;;;;;;;;;6073904;23;20446;-83
2024/04/09 13:30:23;;;;;;;1.80;0.87;;;;;;;;;;6073740;23;20408;-85
2024/04/09 13:32:49;;;;;;;2.43;0.87;;;;;;;;;;6099054;23;20424;-82
2024/04/09 13:35:16;;;;;;;2.97;0.70;;;;;;;;;;6074930;23;20411;-84
2024/04/09 13:37:45;;;;;;;1.20;0.70;;;;;;;;;;6097938;23;20514;-84
2024/04/09 13:40:13;;;;;;;1.27;0.67;;;;;;;;;;6075478;23;21181;-84
2024/04/09 13:42:40;;;;;;;3.10;1.00;;;;;;;;;;6098822;23;20432;-82
2024/04/09 13:45:07;;;;;;;4.80;1.93;;;;;;;;;;6100249;23;20416;-82
2024/04/09 13:47:33;;;;;;;5.23;1.03;;;;;;;;;;6099004;23;20436;-85
2024/04/09 13:50:00;;;;;;;1.43;0.80;;;;;;;;;;6098579;23;20512;-85
2024/04/09 13:52:29;;;;;;;3.10;0.90;;;;;;;;;;6106848;23;20481;-81
2024/04/09 13:54:58;;;;;;;1.93;0.50;;;;;;;;;;6080657;23;20474;-84
2024/04/09 13:57:25;;;;;;;3.80;0.63;;;;;;;;;;6076798;23;20404;-86
2024/04/09 13:59:51;;;;;;;1.10;0.77;;;;;;;;;;6098687;23;20415;-87
2024/04/09 14:02:18;;;;;;;1.87;0.70;;;;;;;;;;6102655;23;21071;-85
2024/04/09 14:04:47;;;;;;;2.30;0.70;;;;;;;;;;6102088;23;20455;-86
2024/04/09 14:07:16;;;;;;;2.40;0.93;;;;;;;;;;6100999;23;20441;-83
2024/04/09 14:09:43;;;;;;;1.67;0.80;;;;;;;;;;6098140;23;20428;-85
2024/04/09 14:12:09;;;;;;;1.77;0.70;;;;;;;;;;6094216;23;20435;-84
2024/04/09 14:14:36;;;;;;;0.97;0.70;;;;;;;;;;6075976;23;20423;-83
2024/04/09 14:17:03;;;;;;;3.27;1.00;;;;;;;;;;6075774;23;20412;-85
2024/04/09 14:19:37;;;;;;;2.90;0.90;;;;;;;;;;6099280;23;20430;-86
2024/04/09 14:22:04;;;;;;;3.90;2.37;;;;;;;;;;6096295;23;20427;-84
2024/04/09 14:24:30;;;;;;;1.63;0.90;;;;;;;;;;6100412;23;20929;-85
2024/04/09 14:26:56;;;;;;;2.07;0.90;;;;;;;;;;6077508;23;20532;-83
2024/04/09 14:29:24;;;;;;;3.27;0.80;;;;;;;;;;6102141;23;20419;-85
2024/04/09 14:31:55;;;;;;;2.77;0.80;;;;;;;;;;6097260;23;20442;-84
2024/04/09 14:34:24;;;;;;;3.60;1.30;;;;;;;;;;6100602;23;20397;-85
2024/04/09 14:36:52;;;;;;;2.67;0.80;;;;;;;;;;6073284;23;20407;-83
2024/04/09 14:39:21;;;;;;;1.93;0.80;;;;;;;;;;6097250;23;20401;-85
2024/04/09 14:41:48;;;;;;;1.90;0.60;;;;;;;;;;6073425;23;20735;-84
2024/04/09 14:44:15;;;;;;;3.27;1.97;;;;;;;;;;6098319;23;20407;-85
2024/04/09 14:46:41;;;;;;;2.40;1.03;;;;;;;;;;6073415;23;20485;-83
2024/04/09 14:49:09;;;;;;;1.90;0.80;;;;;;;;;;6077224;23;20413;-85
2024/04/09 14:51:35;;;;;;;0.80;0.60;;;;;;;;;;6082054;23;20427;-83
2024/04/09 14:54:04;;;;;;;1.70;0.93;;;;;;;;;;6079998;23;20404;-86
2024/04/09 14:56:31;;;;;;;2.93;0.93;;;;;;;;;;6098139;23;20415;-85
2024/04/09 14:58:59;;;;;;;0.90;0.60;;;;;;;;;;6099121;23;20413;-86
2024/04/09 15:01:25;;;;;;;1.83;0.67;;;;;;;;;;6096532;23;20435;-86
2024/04/09 15:03:52;;;;;;;2.37;0.83;;;;;;;;;;6087869;23;21179;-84
2024/04/09 15:06:18;;;;;;;1.73;0.77;;;;;;;;;;6097339;23;20440;-81
2024/04/09 15:08:45;;;;;;;3.53;1.07;;;;;;;;;;6070774;23;20686;-86
2024/04/09 15:11:16;;;;;;;0.97;0.70;;;;;;;;;;6081487;23;20777;-85
2024/04/09 15:13:44;;;;;;;2.00;0.87;;;;;;;;;;6088565;23;20401;-84
2024/04/09 15:16:13;;;;;;;2.90;0.90;;;;;;;;;;6072175;23;20417;-85
2024/04/09 15:18:41;;;;;;;2.90;0.80;;;;;;;;;;6070920;23;20508;-84
2024/04/09 15:21:08;;;;;;;2.37;1.10;;;;;;;;;;6068975;23;20462;-85
2024/04/09 15:23:34;;;;;;;2.67;1.10;;;;;;;;;;6064025;23;20413;-85
2024/04/09 15:26:02;;;;;;;0.80;0.60;;;;;;;;;;6086815;23;20419;-87
2024/04/09 15:28:28;;;;;;;4.13;1.10;;;;;;;;;;6096107;23;20415;-83
2024/04/09 15:30:55;;;;;;;5.03;0.77;;;;;;;;;;6095855;23;20401;-86
2024/04/09 15:33:22;;;;;;;3.20;0.80;;;;;;;;;;6099732;23;20419;-84
2024/04/09 15:35:56;;;;;;;3.13;0.70;;;;;;;;;;6097853;23;20411;-85
2024/04/09 15:38:22;;;;;;;1.77;0.63;;;;;;;;;;6094064;23;20751;-85
2024/04/09 15:40:50;;;;;;;1.40;0.60;;;;;;;;;;6096081;23;20427;-85
2024/04/09 15:43:19;;;;;;;2.50;1.50;;;;;;;;;;6100508;23;20425;-84
2024/04/09 15:45:51;;;;;;;1.33;0.50;;;;;;;;;;6101053;23;20416;-83
2024/04/09 15:48:24;;;;;;;2.70;0.93;;;;;;;;;;6105779;23;20400;-86
2024/04/09 15:50:55;;;;;;;1.43;0.70;;;;;;;;;;6115871;23;20399;-81
2024/04/09 15:53:22;;;;;;;1.13;0.70;;;;;;;;;;6086413;23;20427;-84
2024/04/09 15:55:56;;;;;;;2.10;0.80;;;;;;;;;;6085836;23;20435;-83
2024/04/09 15:58:30;;;;;;;1.43;0.60;;;;;;;;;;6103368;23;20397;-84
2024/04/09 16:00:57;;;;;;;1.13;0.50;;;;;;;;;;6078805;23;20840;-84
2024/04/09 16:03:29;;;;;;;1.83;0.80;;;;;;;;;;6079050;23;20405;-85
2024/04/09 16:05:58;;;;;;;3.13;1.77;;;;;;;;;;6107185;23;20389;-84
2024/04/09 16:08:29;;;;;;;2.17;1.10;;;;;;;;;;6115312;23;20492;-85
2024/04/09 16:11:00;;;;;;;3.33;2.07;;;;;;;;;;6115363;23;20444;-88
2024/04/09 16:13:51;;;;;;;1.50;0.87;;;;;;;;;;6107147;23;20384;-85
2024/04/09 16:16:17;;;;;;;4.33;0.90;;;;;;;;;;6100125;23;20419;-83
2024/04/09 16:18:46;;;;;;;1.23;0.63;;;;;;;;;;6078259;23;20767;-85
2024/04/09 16:21:12;;;;;;;2.03;0.87;;;;;;;;;;6076995;23;20405;-84
2024/04/09 16:23:39;;;;;;;3.37;0.93;;;;;;;;;;6099757;23;20404;-82
2024/04/09 16:26:07;;;;;;;3.03;1.33;;;;;;;;;;6101320;23;20405;-86
2024/04/09 16:28:44;;;;;;;3.13;0.87;;;;;;;;;;6100001;23;20409;-86
2024/04/09 16:31:11;;;;;;;2.40;1.03;;;;;;;;;;6072322;23;21332;-81
2024/04/09 16:33:38;;;;;;;1.90;0.70;;;;;;;;;;6099889;23;20409;-83
2024/04/09 16:36:06;;;;;;;4.33;0.90;;;;;;;;;;6099413;23;20407;-85
2024/04/09 16:38:33;;;;;;;1.53;0.70;;;;;;;;;;6095223;23;20405;-86
2024/04/09 16:41:05;;;;;;;1.60;0.80;;;;;;;;;;6078649;23;20482;-86
2024/04/09 16:43:31;;;;;;;2.40;0.70;;;;;;;;;;6100360;23;20875;-84
2024/04/09 16:45:58;;;;;;;1.70;0.93;;;;;;;;;;6100796;23;20400;-84
2024/04/09 16:48:24;;;;;;;1.53;0.63;;;;;;;;;;6097875;23;20405;-82
2024/04/09 16:50:52;;;;;;;1.37;0.87;;;;;;;;;;6075583;23;20401;-84
2024/04/09 16:53:19;;;;;;;1.73;0.80;;;;;;;;;;6097869;23;20428;-82
2024/04/09 16:55:57;;;;;;;1.40;0.53;;;;;;;;;;6041767;23;20399;-83
2024/04/09 16:58:23;;;;;;;3.47;0.80;;;;;;;;;;6087648;23;20392;-83
2024/04/09 17:00:50;;;;;;;0.93;0.70;;;;;;;;;;6051547;23;20405;-82
2024/04/09 17:03:17;;;;;;;0.87;0.87;;;;;;;;;;6079260;23;20447;-83
2024/04/09 17:05:44;;;;;;;1.33;0.87;;;;;;;;;;6101780;23;20397;-84
2024/04/09 17:08:11;;;;;;;1.90;0.90;;;;;;;;;;6101043;23;20441;-85
2024/04/09 17:10:37;;;;;;;0.73;0.63;;;;;;;;;;6080172;23;20413;-81
2024/04/09 17:13:10;;;;;;;2.83;1.20;;;;;;;;;;6074976;23;20424;-85
2024/04/09 17:15:37;;;;;;;1.90;0.80;;;;;;;;;;6097916;23;20413;-86
2024/04/09 17:18:04;;;;;;;1.77;1.00;;;;;;;;;;6100908;23;20396;-83
2024/04/09 17:20:33;;;;;;;3.33;0.87;;;;;;;;;;6075746;23;20405;-82
2024/04/09 17:23:00;;;;;;;1.60;0.80;;;;;;;;;;6071179;23;20433;-82
2024/04/09 17:25:28;;;;;;;0.93;0.60;;;;;;;;;;6100055;23;20418;-83
2024/04/09 17:27:55;;;;;;;1.93;1.20;;;;;;;;;;6099371;23;20448;-84
2024/04/09 17:30:34;;;;;;;2.73;0.80;;;;;;;;;;6099509;23;20417;-85
2024/04/09 17:33:01;;;;;;;3.70;1.50;;;;;;;;;;6139152;23;20462;-86
2024/04/09 17:35:33;;;;;;;1.30;0.80;;;;;;;;;;6135533;23;20387;-84
2024/04/09 17:38:01;;;;;;;4.23;0.80;;;;;;;;;;6135245;23;20425;-82
2024/04/09 17:40:28;;;;;;;2.40;1.10;;;;;;;;;;6132903;23;20399;-85
2024/04/09 17:42:54;;;;;;;2.60;0.80;;;;;;;;;;6128782;23;20423;-84
2024/04/09 17:45:22;;;;;;;2.07;1.20;;;;;;;;;;6106189;23;20404;-84
2024/04/09 17:47:48;;;;;;;3.23;1.47;;;;;;;;;;6125801;23;20443;-85
2024/04/09 17:50:14;;;;;;;2.20;1.00;;;;;;;;;;6104337;23;20401;-84
2024/04/09 17:52:44;;;;;;;4.30;1.90;;;;;;;;;;6129029;23;20424;-83
2024/04/09 17:55:11;;;;;;;1.30;1.07;;;;;;;;;;6107834;23;20410;-85
2024/04/09 17:57:37;;;;;;;3.33;1.20;;;;;;;;;;6133293;23;20408;-82
2024/04/09 18:00:31;;;;;;;2.50;0.90;;;;;;;;;;6109287;23;20404;-85
2024/04/09 18:02:57;;;;;;;2.33;1.37;;;;;;;;;;6094671;23;20442;-83
2024/04/09 18:05:24;;;;;;;1.00;0.67;;;;;;;;;;6105279;23;20408;-85
2024/04/09 18:08:18;;;;;;;1.50;0.80;;;;;;;;;;6135390;23;20463;-83
2024/04/09 18:11:12;;;;;;;2.30;0.83;;;;;;;;;;6129382;23;20391;-82
2024/04/09 18:13:39;;;;;;;2.80;0.70;;;;;;;;;;6103955;23;20393;-85
2024/04/09 18:16:06;;;;;;;2.80;0.90;;;;;;;;;;6107011;23;20396;-84
2024/04/09 18:18:33;;;;;;;2.40;0.70;;;;;;;;;;6103860;23;20408;-84
2024/04/09 18:21:00;;;;;;;3.27;1.80;;;;;;;;;;6102120;23;20406;-84
2024/04/09 18:23:28;;;;;;;3.43;1.07;;;;;;;;;;6105165;23;20418;-83
2024/04/09 18:25:57;;;;;;;1.27;0.90;;;;;;;;;;6127325;23;20406;-86
2024/04/09 18:28:24;;;;;;;1.10;1.00;;;;;;;;;;6131086;23;20470;-85
2024/04/09 18:31:00;;;;;;;0.97;0.80;;;;;;;;;;6128526;23;20463;-83
2024/04/09 18:33:28;;;;;;;1.50;1.10;;;;;;;;;;6132264;23;20730;-83
2024/04/09 18:35:54;;;;;;;2.70;0.70;;;;;;;;;;6105137;23;20536;-83
2024/04/09 18:38:21;;;;;;;2.73;0.70;;;;;;;;;;6106306;23;20403;-85
2024/04/09 18:40:47;;;;;;;2.00;1.00;;;;;;;;;;6107134;23;20407;-84
2024/04/09 18:43:14;;;;;;;2.80;1.00;;;;;;;;;;6106513;23;20427;-84
2024/04/09 18:45:40;;;;;;;1.50;0.97;;;;;;;;;;6112604;23;20458;-85
2024/04/09 18:48:07;;;;;;;5.40;1.20;;;;;;;;;;6112093;23;20442;-86
2024/04/09 18:50:34;;;;;;;3.40;1.90;;;;;;;;;;6112010;23;20403;-81
2024/04/09 18:53:02;;;;;;;3.30;1.80;;;;;;;;;;6112914;23;20429;-87
2024/04/09 18:55:29;;;;;;;2.83;1.10;;;;;;;;;;6113446;23;20402;-82
2024/04/09 18:57:59;;;;;;;2.63;1.13;;;;;;;;;;6137789;23;20721;-84
2024/04/09 19:00:25;;;;;;;1.30;0.80;;;;;;;;;;6139850;23;20403;-83
2024/04/09 19:02:51;;;;;;;2.13;1.33;;;;;;;;;;6114368;23;20501;-84
2024/04/09 19:05:18;;;;;;;2.97;0.70;;;;;;;;;;6114700;23;20422;-84
2024/04/09 19:07:48;;;;;;;2.83;0.87;;;;;;;;;;6144998;23;20447;-82
2024/04/09 19:10:14;;;;;;;1.27;0.90;;;;;;;;;;6122723;23;20399;-84
2024/04/09 19:12:40;;;;;;;2.20;0.70;;;;;;;;;;6148674;23;20498;-85
2024/04/09 19:15:09;;;;;;;4.23;0.83;;;;;;;;;;6121342;23;20402;-82
2024/04/09 19:17:35;;;;;;;3.53;0.90;;;;;;;;;;6149501;23;20464;-84
2024/04/09 19:20:04;;;;;;;1.80;0.90;;;;;;;;;;6150104;23;20470;-83
2024/04/09 19:22:32;;;;;;;1.23;0.80;;;;;;;;;;6126017;23;20486;-84
2024/04/09 19:24:59;;;;;;;1.73;1.00;;;;;;;;;;6150694;23;20458;-85
2024/04/09 19:27:25;;;;;;;1.67;0.73;;;;;;;;;;6146452;23;20457;-82
2024/04/09 19:29:57;;;;;;;1.37;1.03;;;;;;;;;;6113381;23;20411;-85
2024/04/09 19:32:56;;;;;;;;;;;;;;;;;;;;;
2024/04/09 19:35:30;;;;;;;1.27;0.80;;;;;;;;;;6148141;23;20460;-82
2024/04/09 19:37:57;;;;;;;1.50;1.40;;;;;;;;;;6122998;23;20453;-83
2024/04/09 19:40:29;;;;;;;2.13;1.03;;;;;;;;;;6125219;23;20433;-85
2024/04/09 19:43:11;;;;;;;1.10;0.77;;;;;;;;;;6148913;23;20450;-85
2024/04/09 19:46:03;;;;;;;1.90;0.87;;;;;;;;;;6122948;23;20900;-84
2024/04/09 19:48:29;;;;;;;1.53;0.80;;;;;;;;;;6117804;23;20407;-84
2024/04/09 19:50:56;;;;;;;1.20;0.53;;;;;;;;;;6118997;23;20411;-81
2024/04/09 19:53:27;;;;;;;2.40;0.80;;;;;;;;;;6122836;23;20410;-83
2024/04/09 19:55:54;;;;;;;2.83;1.10;;;;;;;;;;6118093;23;20514;-81
2024/04/09 19:58:21;;;;;;;0.80;0.80;;;;;;;;;;6142694;23;20421;-85
2024/04/09 20:00:49;;;;;;;3.23;0.60;;;;;;;;;;6139489;23;20406;-82
2024/04/09 20:03:17;;;;;;;0.90;0.73;;;;;;;;;;6111450;23;20423;-85
2024/04/09 20:05:46;;;;;;;5.03;0.80;;;;;;;;;;6135278;23;20395;-85
2024/04/09 20:08:29;;;;;;;;;;;;;;;;;;;;;
2024/04/09 20:11:12;;;;;;;1.80;0.80;;;;;;;;;;6134727;23;20395;-83
2024/04/09 20:13:42;;;;;;;1.27;0.57;;;;;;;;;;6109182;23;20402;-85
2024/04/09 20:16:09;;;;;;;3.33;0.97;;;;;;;;;;6109187;23;20391;-83
2024/04/09 20:18:37;;;;;;;1.60;1.27;;;;;;;;;;6132139;23;20407;-83
2024/04/09 20:21:04;;;;;;;1.20;0.90;;;;;;;;;;6108669;23;20463;-84
2024/04/09 20:23:31;;;;;;;0.93;0.83;;;;;;;;;;6134336;23;20438;-86
2024/04/09 20:25:58;;;;;;;3.63;1.20;;;;;;;;;;6131902;23;20403;-83
2024/04/09 20:28:25;;;;;;;1.37;1.27;;;;;;;;;;6108156;23;20447;-85
2024/04/09 20:30:51;;;;;;;1.40;0.93;;;;;;;;;;6132889;23;20476;-84
2024/04/09 20:33:17;;;;;;;2.70;1.10;;;;;;;;;;6131341;23;20435;-85
2024/04/09 20:35:44;;;;;;;0.90;0.80;;;;;;;;;;6131390;23;20403;-84
2024/04/09 20:38:10;;;;;;;3.33;1.37;;;;;;;;;;6108360;23;20447;-84
2024/04/09 20:40:38;;;;;;;1.20;0.90;;;;;;;;;;6112617;23;20394;-84
2024/04/09 20:43:04;;;;;;;4.40;1.30;;;;;;;;;;6144840;23;20414;-82
2024/04/09 20:45:31;;;;;;;3.43;1.20;;;;;;;;;;6120949;23;20413;-85
2024/04/09 20:47:57;;;;;;;2.70;1.60;;;;;;;;;;6142125;23;20457;-85
2024/04/09 20:50:24;;;;;;;5.10;1.27;;;;;;;;;;6112315;23;20409;-85
2024/04/09 20:52:51;;;;;;;3.67;1.27;;;;;;;;;;6108191;23;21270;-84
2024/04/09 20:55:18;;;;;;;6.07;1.47;;;;;;;;;;6130048;23;20413;-84
2024/04/09 20:57:46;;;;;;;4.63;1.80;;;;;;;;;;6084050;23;20563;-83
2024/04/09 21:00:12;;;;;;;2.77;1.20;;;;;;;;;;6106387;23;20407;-83
2024/04/09 21:02:38;;;;;;;4.20;1.30;;;;;;;;;;6102066;23;20433;-85
2024/04/09 21:05:05;;;;;;;3.03;1.70;;;;;;;;;;6130273;23;20411;-88
2024/04/09 21:07:31;;;;;;;2.30;1.00;;;;;;;;;;6109501;23;20450;-83
2024/04/09 21:09:59;;;;;;;1.43;1.07;;;;;;;;;;6108182;23;20408;-85
2024/04/09 21:12:26;;;;;;;3.77;1.40;;;;;;;;;;6109043;23;20489;-85
2024/04/09 21:14:54;;;;;;;2.73;1.20;;;;;;;;;;6109913;23;20425;-83
2024/04/09 21:17:20;;;;;;;2.17;0.93;;;;;;;;;;6134303;23;20411;-85
2024/04/09 21:19:46;;;;;;;3.77;1.00;;;;;;;;;;6109493;23;20387;-83
2024/04/09 21:22:13;;;;;;;5.13;2.03;;;;;;;;;;6108195;23;20495;-84
2024/04/09 21:24:39;;;;;;;2.20;1.17;;;;;;;;;;6130599;23;20415;-81
2024/04/09 21:27:06;;;;;;;1.90;1.17;;;;;;;;;;6133315;23;20447;-80
2024/04/09 21:29:35;;;;;;;3.37;1.47;;;;;;;;;;6132956;23;20387;-82
2024/04/09 21:32:02;;;;;;;2.30;1.20;;;;;;;;;;6116657;23;20426;-87
2024/04/09 21:34:57;;;;;;;1.43;1.30;;;;;;;;;;6159818;23;20395;-83
2024/04/09 21:37:26;;;;;;;6.10;1.30;;;;;;;;;;6135096;23;20457;-84
2024/04/09 21:39:53;;;;;;;4.40;1.73;;;;;;;;;;6110782;23;20418;-83
2024/04/09 21:42:20;;;;;;;5.30;1.27;;;;;;;;;;6109950;23;20419;-85
2024/04/09 21:44:47;;;;;;;2.43;1.40;;;;;;;;;;6132979;23;20399;-83
2024/04/09 21:47:14;;;;;;;3.83;1.60;;;;;;;;;;6102693;23;20449;-84
2024/04/09 21:49:40;;;;;;;2.73;1.13;;;;;;;;;;6103782;23;20411;-84
2024/04/09 21:52:06;;;;;;;6.90;2.10;;;;;;;;;;6109540;23;20414;-82
2024/04/09 21:54:32;;;;;;;7.67;1.40;;;;;;;;;;6110400;23;20413;-82
2024/04/09 21:56:58;;;;;;;3.57;1.43;;;;;;;;;;6136617;23;20445;-82
2024/04/09 21:59:26;;;;;;;5.33;1.50;;;;;;;;;;6147356;23;20403;-85
2024/04/09 22:01:52;;;;;;;2.70;1.50;;;;;;;;;;6124180;23;20486;-84
2024/04/09 22:04:21;;;;;;;4.30;1.63;;;;;;;;;;6140866;23;20410;-83
2024/04/09 22:06:49;;;;;;;3.93;1.67;;;;;;;;;;6111294;23;20403;-82
2024/04/09 22:09:15;;;;;;;3.23;1.70;;;;;;;;;;6133816;23;20399;-82
2024/04/09 22:11:42;;;;;;;11.13;2.40;;;;;;;;;;6132957;23;20423;-83
2024/04/09 22:14:08;;;;;;;2.67;1.53;;;;;;;;;;6108218;23;20403;-83
2024/04/09 22:16:35;;;;;;;4.00;1.70;;;;;;;;;;6139278;23;20484;-81
2024/04/09 22:19:01;;;;;;;6.67;1.73;;;;;;;;;;6135563;23;20400;-84
2024/04/09 22:21:27;;;;;;;3.90;1.40;;;;;;;;;;6146785;23;20437;-84
2024/04/09 22:23:55;;;;;;;5.90;1.40;;;;;;;;;;6148359;23;20648;-83
2024/04/09 22:26:22;;;;;;;4.57;1.60;;;;;;;;;;6147406;23;20399;-84
2024/04/09 22:28:48;;;;;;;4.70;1.70;;;;;;;;;;6115538;23;20403;-83
2024/04/09 22:31:17;;;;;;;2.63;1.37;;;;;;;;;;6117701;23;20413;-84
2024/04/09 22:33:44;;;;;;;4.63;1.83;;;;;;;;;;6087919;23;20379;-83
2024/04/09 22:36:10;;;;;;;7.00;1.83;;;;;;;;;;6136358;23;20469;-84
2024/04/09 22:52:48;;;;;;;3.50;1.73;;;;;;;;;;6030131;23;20399;-89
2024/04/09 23:04:22;;;;;;;5.00;1.70;;;;;;;;;;6191492;23;20434;-87
2024/04/09 23:07:03;;;;;;;6.17;1.80;;;;;;;;;;6165611;23;20387;-87
2024/04/09 23:09:37;;;;;;;8.30;1.73;;;;;;;;;;6134094;23;20438;-87
2024/04/09 23:12:45;;;;;;;4.87;1.50;;;;;;;;;;6129127;23;20435;-89
2024/04/09 23:15:23;;;;;;;4.87;1.83;;;;;;;;;;6111705;23;20405;-86
2024/04/09 23:19:04;;;;;;;7.90;1.80;;;;;;;;;;6121335;23;20431;-87
2024/04/09 23:21:14;;;;;;;6.17;2.30;;;;;;;;;;6141186;23;20446;-88
2024/04/09 23:23:54;;;;;;;8.60;1.90;;;;;;;;;;6117887;23;20413;-88
2024/04/09 23:26:26;;;;;;;3.97;1.73;;;;;;;;;;6142629;23;20387;-87
2024/04/09 23:29:02;;;;;;;6.60;1.80;;;;;;;;;;6110901;23;20396;-87
2024/04/09 23:31:34;;;;;;;7.03;2.27;;;;;;;;;;6108265;23;20424;-89
2024/04/09 23:34:20;;;;;;;6.60;1.80;;;;;;;;;;6132356;23;20392;-86
2024/04/09 23:37:06;;;;;;;5.37;1.67;;;;;;;;;;6113714;23;20453;-86
2024/04/09 23:39:37;;;;;;;9.23;1.93;;;;;;;;;;6119442;23;20410;-87
2024/04/09 23:42:09;;;;;;;6.10;2.07;;;;;;;;;;6115959;23;20803;-89
2024/04/09 23:44:48;;;;;;;7.73;2.23;;;;;;;;;;6124587;23;20468;-87
2024/04/09 23:50:32;;;;;;;12.13;2.00;;;;;;;;;;6105449;23;20403;-88
2024/04/09 23:53:04;;;;;;;7.70;2.60;;;;;;;;;;6134292;23;20437;-89
2024/04/09 23:59:09;;;;;;;5.40;2.03;;;;;;;;;;6142309;23;20437;-88
